sensor_id;sensor_type;location;lat;lon;timestamp;pressure;altitude;pressure_sealevel;temperature;humidity
34983;BME280;21187;50.976;13.720;2022-12-18T00:00:44;99668.16;;;-5.05;56.58
34983;BME280;21187;50.976;13.720;2022-12-18T00:05:50;99671.66;;;-5.18;56.85
34983;BME280;21187;50.976;13.720;2022-12-18T00:10:52;99684.88;;;-5.25;57.25
34983;BME280;21187;50.976;13.720;2022-12-18T00:16:04;99682.66;;;-5.28;57.25
34983;BME280;21187;50.976;13.720;2022-12-18T00:21:08;99697.59;;;-5.08;57.34
34983;BME280;21187;50.976;13.720;2022-12-18T00:26:13;99691.03;;;-4.92;57.37
34983;BME280;21187;50.976;13.720;2022-12-18T00:31:19;99684.88;;;-4.79;57.33
34983;BME280;21187;50.976;13.720;2022-12-18T00:36:25;99698.47;;;-4.69;57.12
34983;BME280;21187;50.976;13.720;2022-12-18T00:41:27;99700.25;;;-4.63;57.04
34983;BME280;21187;50.976;13.720;2022-12-18T00:46:48;99705.13;;;-4.60;57.05
34983;BME280;21187;50.976;13.720;2022-12-18T00:51:50;99697.38;;;-4.55;56.98
34983;BME280;21187;50.976;13.720;2022-12-18T00:56:52;99713.66;;;-4.58;57.13
34983;BME280;21187;50.976;13.720;2022-12-18T01:01:54;99708.81;;;-4.68;56.96
34983;BME280;21187;50.976;13.720;2022-12-18T01:06:56;99722.69;;;-4.72;57.42
34983;BME280;21187;50.976;13.720;2022-12-18T01:11:58;99725.34;;;-4.79;57.41
34983;BME280;21187;50.976;13.720;2022-12-18T01:17:00;99731.69;;;-4.87;57.22
34983;BME280;21187;50.976;13.720;2022-12-18T01:22:06;99729.84;;;-4.86;57.09
34983;BME280;21187;50.976;13.720;2022-12-18T01:27:08;99729.66;;;-4.91;56.87
34983;BME280;21187;50.976;13.720;2022-12-18T01:32:11;99734.56;;;-5.02;56.82
34983;BME280;21187;50.976;13.720;2022-12-18T01:37:13;99731.75;;;-5.13;56.93
34983;BME280;21187;50.976;13.720;2022-12-18T01:42:15;99726.31;;;-5.25;56.79
34983;BME280;21187;50.976;13.720;2022-12-18T01:47:22;99724.53;;;-5.38;56.79
34983;BME280;21187;50.976;13.720;2022-12-18T01:52:28;99726.38;;;-5.59;57.13
34983;BME280;21187;50.976;13.720;2022-12-18T01:57:31;99722.94;;;-5.66;57.30
34983;BME280;21187;50.976;13.720;2022-12-18T02:02:33;99734.09;;;-5.71;57.05
34983;BME280;21187;50.976;13.720;2022-12-18T02:13:16;99746.06;;;-5.61;56.86
34983;BME280;21187;50.976;13.720;2022-12-18T02:18:27;99722.13;;;-5.60;57.01
34983;BME280;21187;50.976;13.720;2022-12-18T02:29:05;99739.16;;;-5.49;56.67
34983;BME280;21187;50.976;13.720;2022-12-18T02:34:11;99750.13;;;-5.45;56.55
34983;BME280;21187;50.976;13.720;2022-12-18T02:39:15;99753.16;;;-5.42;56.44
34983;BME280;21187;50.976;13.720;2022-12-18T02:44:30;99739.56;;;-5.45;56.41
34983;BME280;21187;50.976;13.720;2022-12-18T02:49:49;99736.75;;;-5.64;56.34
34983;BME280;21187;50.976;13.720;2022-12-18T03:11:14;99752.00;;;-6.06;56.48
34983;BME280;21187;50.976;13.720;2022-12-18T03:16:28;99756.66;;;-6.08;56.53
34983;BME280;21187;50.976;13.720;2022-12-18T03:21:39;99753.81;;;-6.20;56.69
34983;BME280;21187;50.976;13.720;2022-12-18T03:26:44;99751.34;;;-6.22;56.89
34983;BME280;21187;50.976;13.720;2022-12-18T03:31:52;99749.31;;;-6.33;56.72
34983;BME280;21187;50.976;13.720;2022-12-18T03:36:55;99757.81;;;-6.44;56.59
34983;BME280;21187;50.976;13.720;2022-12-18T03:47:58;99759.84;;;-6.46;56.79
34983;BME280;21187;50.976;13.720;2022-12-18T03:53:28;99761.25;;;-6.50;56.56
34983;BME280;21187;50.976;13.720;2022-12-18T03:58:36;99762.81;;;-6.63;56.64
34983;BME280;21187;50.976;13.720;2022-12-18T04:03:51;99764.25;;;-6.54;56.86
34983;BME280;21187;50.976;13.720;2022-12-18T04:08:54;99773.03;;;-6.46;56.43
34983;BME280;21187;50.976;13.720;2022-12-18T04:13:59;99769.56;;;-6.40;56.54
34983;BME280;21187;50.976;13.720;2022-12-18T04:19:07;99779.09;;;-6.46;56.50
34983;BME280;21187;50.976;13.720;2022-12-18T04:24:13;99773.59;;;-6.51;56.19
34983;BME280;21187;50.976;13.720;2022-12-18T04:29:25;99785.94;;;-6.65;56.61
34983;BME280;21187;50.976;13.720;2022-12-18T04:34:27;99784.38;;;-6.88;56.36
34983;BME280;21187;50.976;13.720;2022-12-18T04:39:30;99777.81;;;-7.05;56.70
34983;BME280;21187;50.976;13.720;2022-12-18T04:44:37;99785.47;;;-7.17;56.45
34983;BME280;21187;50.976;13.720;2022-12-18T04:49:39;99791.13;;;-7.20;56.47
34983;BME280;21187;50.976;13.720;2022-12-18T04:54:41;99807.72;;;-7.20;56.53
34983;BME280;21187;50.976;13.720;2022-12-18T04:59:44;99784.41;;;-7.23;56.89
34983;BME280;21187;50.976;13.720;2022-12-18T05:04:46;99780.78;;;-7.22;56.71
34983;BME280;21187;50.976;13.720;2022-12-18T05:09:47;99788.78;;;-7.02;57.30
34983;BME280;21187;50.976;13.720;2022-12-18T05:14:49;99800.03;;;-6.86;56.49
34983;BME280;21187;50.976;13.720;2022-12-18T05:19:51;99786.88;;;-6.79;56.53
34983;BME280;21187;50.976;13.720;2022-12-18T05:24:53;99788.47;;;-6.78;55.86
34983;BME280;21187;50.976;13.720;2022-12-18T05:29:55;99790.91;;;-6.83;56.31
34983;BME280;21187;50.976;13.720;2022-12-18T05:34:56;99798.59;;;-6.89;55.81
34983;BME280;21187;50.976;13.720;2022-12-18T05:39:58;99793.22;;;-7.02;56.40
34983;BME280;21187;50.976;13.720;2022-12-18T05:45:00;99788.75;;;-7.08;56.55
34983;BME280;21187;50.976;13.720;2022-12-18T05:50:02;99799.06;;;-7.13;56.56
34983;BME280;21187;50.976;13.720;2022-12-18T05:55:04;99802.09;;;-7.16;56.14
34983;BME280;21187;50.976;13.720;2022-12-18T06:00:07;99802.84;;;-7.23;56.18
34983;BME280;21187;50.976;13.720;2022-12-18T06:05:12;99809.75;;;-7.22;56.47
34983;BME280;21187;50.976;13.720;2022-12-18T06:10:14;99810.19;;;-7.11;55.89
34983;BME280;21187;50.976;13.720;2022-12-18T06:15:16;99813.28;;;-7.01;56.16
34983;BME280;21187;50.976;13.720;2022-12-18T06:20:18;99823.06;;;-6.95;55.32
34983;BME280;21187;50.976;13.720;2022-12-18T06:25:20;99827.94;;;-6.92;55.60
34983;BME280;21187;50.976;13.720;2022-12-18T06:30:22;99830.38;;;-6.90;55.91
34983;BME280;21187;50.976;13.720;2022-12-18T06:35:24;99828.09;;;-7.00;56.08
34983;BME280;21187;50.976;13.720;2022-12-18T06:40:26;99831.13;;;-7.03;55.74
34983;BME280;21187;50.976;13.720;2022-12-18T06:45:28;99830.03;;;-7.15;55.47
34983;BME280;21187;50.976;13.720;2022-12-18T06:50:30;99832.41;;;-7.21;55.29
34983;BME280;21187;50.976;13.720;2022-12-18T06:55:32;99831.09;;;-7.38;55.84
34983;BME280;21187;50.976;13.720;2022-12-18T07:00:34;99840.69;;;-7.52;56.27
34983;BME280;21187;50.976;13.720;2022-12-18T07:05:40;99857.69;;;-7.55;56.10
34983;BME280;21187;50.976;13.720;2022-12-18T07:10:43;99855.59;;;-7.59;56.09
34983;BME280;21187;50.976;13.720;2022-12-18T07:15:48;99856.19;;;-7.64;56.33
34983;BME280;21187;50.976;13.720;2022-12-18T07:20:50;99854.84;;;-7.53;56.22
34983;BME280;21187;50.976;13.720;2022-12-18T07:25:52;99857.78;;;-7.41;56.31
34983;BME280;21187;50.976;13.720;2022-12-18T07:30:54;99865.59;;;-7.26;56.40
34983;BME280;21187;50.976;13.720;2022-12-18T07:35:58;99880.81;;;-6.93;56.11
34983;BME280;21187;50.976;13.720;2022-12-18T07:41:05;99881.78;;;-6.66;55.90
34983;BME280;21187;50.976;13.720;2022-12-18T07:46:09;99880.66;;;-6.50;56.31
34983;BME280;21187;50.976;13.720;2022-12-18T07:51:13;99888.50;;;-6.15;55.91
34983;BME280;21187;50.976;13.720;2022-12-18T07:56:16;99897.91;;;-5.86;55.75
34983;BME280;21187;50.976;13.720;2022-12-18T08:01:28;99899.38;;;-5.63;55.71
34983;BME280;21187;50.976;13.720;2022-12-18T08:06:30;99891.47;;;-5.36;55.58
34983;BME280;21187;50.976;13.720;2022-12-18T08:11:32;99892.28;;;-5.09;55.90
34983;BME280;21187;50.976;13.720;2022-12-18T08:16:34;99891.88;;;-4.86;55.78
34983;BME280;21187;50.976;13.720;2022-12-18T08:21:36;99879.03;;;-4.62;55.83
34983;BME280;21187;50.976;13.720;2022-12-18T08:26:38;99881.97;;;-4.31;56.06
34983;BME280;21187;50.976;13.720;2022-12-18T08:31:40;99878.56;;;-4.00;56.04
34983;BME280;21187;50.976;13.720;2022-12-18T08:36:43;99876.75;;;-3.68;55.89
34983;BME280;21187;50.976;13.720;2022-12-18T08:41:45;99874.47;;;-3.32;56.01
34983;BME280;21187;50.976;13.720;2022-12-18T08:47:10;99878.84;;;-2.94;55.84
34983;BME280;21187;50.976;13.720;2022-12-18T08:52:12;99879.88;;;-2.58;55.58
34983;BME280;21187;50.976;13.720;2022-12-18T08:57:17;99879.72;;;-2.26;55.90
34983;BME280;21187;50.976;13.720;2022-12-18T09:02:19;99892.97;;;-1.89;55.77
34983;BME280;21187;50.976;13.720;2022-12-18T09:07:21;99885.88;;;-1.64;55.59
34983;BME280;21187;50.976;13.720;2022-12-18T09:12:23;99872.53;;;-1.46;55.37
34983;BME280;21187;50.976;13.720;2022-12-18T09:17:25;99894.84;;;-1.35;55.85
34983;BME280;21187;50.976;13.720;2022-12-18T09:22:27;99910.13;;;-1.30;55.90
34983;BME280;21187;50.976;13.720;2022-12-18T09:27:29;99917.16;;;-1.24;55.82
34983;BME280;21187;50.976;13.720;2022-12-18T09:32:31;99914.22;;;-1.04;56.09
34983;BME280;21187;50.976;13.720;2022-12-18T09:37:33;99921.84;;;-0.96;56.48
34983;BME280;21187;50.976;13.720;2022-12-18T09:42:35;99926.47;;;-0.79;55.78
34983;BME280;21187;50.976;13.720;2022-12-18T09:47:39;99921.72;;;-0.65;55.57
34983;BME280;21187;50.976;13.720;2022-12-18T09:52:46;99912.84;;;-0.71;55.72
34983;BME280;21187;50.976;13.720;2022-12-18T09:57:53;99903.00;;;-0.71;55.81
34983;BME280;21187;50.976;13.720;2022-12-18T10:03:01;99898.94;;;-0.73;55.28
34983;BME280;21187;50.976;13.720;2022-12-18T10:13:38;99882.28;;;-1.04;55.66
34983;BME280;21187;50.976;13.720;2022-12-18T10:19:03;99861.81;;;-1.04;55.17
34983;BME280;21187;50.976;13.720;2022-12-18T10:24:23;99862.84;;;-0.93;55.34
34983;BME280;21187;50.976;13.720;2022-12-18T10:29:28;99859.84;;;-0.85;55.80
34983;BME280;21187;50.976;13.720;2022-12-18T10:34:30;99850.94;;;-0.78;55.48
34983;BME280;21187;50.976;13.720;2022-12-18T10:39:32;99837.16;;;-0.75;55.35
34983;BME280;21187;50.976;13.720;2022-12-18T10:44:34;99825.19;;;-0.90;55.46
34983;BME280;21187;50.976;13.720;2022-12-18T10:49:36;99824.72;;;-0.98;55.39
34983;BME280;21187;50.976;13.720;2022-12-18T10:54:39;99822.84;;;-0.98;55.06
34983;BME280;21187;50.976;13.720;2022-12-18T11:05:30;99822.41;;;-0.95;55.04
34983;BME280;21187;50.976;13.720;2022-12-18T11:10:37;99830.03;;;-0.87;54.93
34983;BME280;21187;50.976;13.720;2022-12-18T11:15:40;99825.84;;;-0.94;55.22
34983;BME280;21187;50.976;13.720;2022-12-18T11:20:53;99808.53;;;-0.97;54.86
34983;BME280;21187;50.976;13.720;2022-12-18T11:26:01;99799.03;;;-0.93;54.97
34983;BME280;21187;50.976;13.720;2022-12-18T11:31:25;99790.00;;;-0.92;54.78
34983;BME280;21187;50.976;13.720;2022-12-18T11:36:38;99795.09;;;-0.90;55.21
34983;BME280;21187;50.976;13.720;2022-12-18T11:41:54;99793.59;;;-0.86;54.65
34983;BME280;21187;50.976;13.720;2022-12-18T11:47:27;99800.75;;;-0.75;54.56
34983;BME280;21187;50.976;13.720;2022-12-18T11:52:39;99799.91;;;-0.75;54.57
34983;BME280;21187;50.976;13.720;2022-12-18T11:57:48;99802.69;;;-0.70;54.72
34983;BME280;21187;50.976;13.720;2022-12-18T12:40:20;99837.94;;;-0.10;54.59
34983;BME280;21187;50.976;13.720;2022-12-18T12:46:11;99840.34;;;1.44;54.49
34983;BME280;21187;50.976;13.720;2022-12-18T12:51:35;99821.34;;;4.30;51.22
34983;BME280;21187;50.976;13.720;2022-12-18T12:56:59;99809.78;;;5.77;48.15
34983;BME280;21187;50.976;13.720;2022-12-18T13:07:50;99803.63;;;7.96;45.88
34983;BME280;21187;50.976;13.720;2022-12-18T13:18:11;99804.22;;;6.48;47.81
34983;BME280;21187;50.976;13.720;2022-12-18T13:33:47;99817.34;;;3.33;50.48
34983;BME280;21187;50.976;13.720;2022-12-18T13:39:10;99823.31;;;2.60;51.09
34983;BME280;21187;50.976;13.720;2022-12-18T13:44:24;99822.34;;;2.06;51.01
34983;BME280;21187;50.976;13.720;2022-12-18T13:49:36;99809.72;;;1.52;50.90
34983;BME280;21187;50.976;13.720;2022-12-18T13:54:40;99798.78;;;1.09;51.32
34983;BME280;21187;50.976;13.720;2022-12-18T13:59:43;99810.16;;;0.82;51.33
34983;BME280;21187;50.976;13.720;2022-12-18T14:04:46;99800.63;;;0.53;51.25
34983;BME280;21187;50.976;13.720;2022-12-18T14:09:55;99808.78;;;0.29;51.69
34983;BME280;21187;50.976;13.720;2022-12-18T14:20:28;99809.88;;;-0.01;51.81
34983;BME280;21187;50.976;13.720;2022-12-18T14:25:32;99810.72;;;-0.12;51.90
34983;BME280;21187;50.976;13.720;2022-12-18T14:30:42;99799.13;;;-0.35;51.86
34983;BME280;21187;50.976;13.720;2022-12-18T14:35:59;99785.06;;;-0.47;51.85
34983;BME280;21187;50.976;13.720;2022-12-18T14:41:05;99779.81;;;-0.71;52.00
34983;BME280;21187;50.976;13.720;2022-12-18T14:51:36;99783.34;;;-1.30;51.93
34983;BME280;21187;50.976;13.720;2022-12-18T14:56:47;99787.13;;;-1.49;52.21
34983;BME280;21187;50.976;13.720;2022-12-18T15:02:02;99785.41;;;-1.68;52.03
34983;BME280;21187;50.976;13.720;2022-12-18T15:07:14;99783.63;;;-1.86;52.39
34983;BME280;21187;50.976;13.720;2022-12-18T15:17:44;99771.72;;;-1.95;52.32
34983;BME280;21187;50.976;13.720;2022-12-18T15:22:47;99780.00;;;-2.03;52.13
34983;BME280;21187;50.976;13.720;2022-12-18T15:27:49;99768.22;;;-2.07;52.63
34983;BME280;21187;50.976;13.720;2022-12-18T15:32:51;99765.44;;;-2.12;52.31
34983;BME280;21187;50.976;13.720;2022-12-18T15:37:54;99770.63;;;-2.18;52.69
34983;BME280;21187;50.976;13.720;2022-12-18T15:42:56;99755.72;;;-2.19;52.64
34983;BME280;21187;50.976;13.720;2022-12-18T15:48:22;99757.22;;;-2.23;52.29
34983;BME280;21187;50.976;13.720;2022-12-18T15:53:33;99763.28;;;-2.34;52.30
34983;BME280;21187;50.976;13.720;2022-12-18T15:58:35;99768.69;;;-2.41;52.53
34983;BME280;21187;50.976;13.720;2022-12-18T16:03:37;99755.88;;;-2.44;52.55
34983;BME280;21187;50.976;13.720;2022-12-18T16:08:39;99748.25;;;-2.40;52.39
34983;BME280;21187;50.976;13.720;2022-12-18T16:13:42;99746.75;;;-2.48;52.84
34983;BME280;21187;50.976;13.720;2022-12-18T16:18:44;99743.97;;;-2.53;52.94
34983;BME280;21187;50.976;13.720;2022-12-18T16:23:46;99744.03;;;-2.60;52.60
34983;BME280;21187;50.976;13.720;2022-12-18T16:28:48;99750.22;;;-2.66;53.12
34983;BME280;21187;50.976;13.720;2022-12-18T16:33:49;99740.66;;;-2.67;53.00
34983;BME280;21187;50.976;13.720;2022-12-18T16:38:51;99744.00;;;-2.72;53.12
34983;BME280;21187;50.976;13.720;2022-12-18T16:43:53;99731.38;;;-2.76;53.24
34983;BME280;21187;50.976;13.720;2022-12-18T16:48:57;99732.47;;;-2.65;53.04
34983;BME280;21187;50.976;13.720;2022-12-18T16:54:00;99741.38;;;-2.60;52.96
34983;BME280;21187;50.976;13.720;2022-12-18T16:59:10;99730.91;;;-2.55;53.05
34983;BME280;21187;50.976;13.720;2022-12-18T17:04:13;99734.94;;;-2.52;52.99
34983;BME280;21187;50.976;13.720;2022-12-18T17:09:17;99731.63;;;-2.47;53.20
34983;BME280;21187;50.976;13.720;2022-12-18T17:14:37;99720.22;;;-2.48;53.31
34983;BME280;21187;50.976;13.720;2022-12-18T17:19:39;99714.09;;;-2.48;53.20
34983;BME280;21187;50.976;13.720;2022-12-18T17:24:41;99709.25;;;-2.52;53.44
34983;BME280;21187;50.976;13.720;2022-12-18T17:29:45;99709.94;;;-2.44;53.01
34983;BME280;21187;50.976;13.720;2022-12-18T17:34:49;99706.97;;;-2.48;53.44
34983;BME280;21187;50.976;13.720;2022-12-18T17:39:52;99702.22;;;-2.46;53.33
34983;BME280;21187;50.976;13.720;2022-12-18T17:44:54;99704.22;;;-2.41;53.39
34983;BME280;21187;50.976;13.720;2022-12-18T17:49:55;99703.16;;;-2.40;53.26
34983;BME280;21187;50.976;13.720;2022-12-18T17:54:57;99694.75;;;-2.37;53.29
34983;BME280;21187;50.976;13.720;2022-12-18T17:59:59;99685.16;;;-2.38;53.35
34983;BME280;21187;50.976;13.720;2022-12-18T18:05:01;99698.81;;;-2.35;53.51
34983;BME280;21187;50.976;13.720;2022-12-18T18:10:04;99685.31;;;-2.33;53.44
34983;BME280;21187;50.976;13.720;2022-12-18T18:15:07;99684.03;;;-2.30;53.52
34983;BME280;21187;50.976;13.720;2022-12-18T18:20:10;99678.97;;;-2.32;53.33
34983;BME280;21187;50.976;13.720;2022-12-18T18:25:15;99683.69;;;-2.34;53.69
34983;BME280;21187;50.976;13.720;2022-12-18T18:30:19;99680.47;;;-2.36;54.04
34983;BME280;21187;50.976;13.720;2022-12-18T18:35:23;99667.41;;;-2.26;53.92
34983;BME280;21187;50.976;13.720;2022-12-18T18:40:45;99668.00;;;-2.24;53.91
34983;BME280;21187;50.976;13.720;2022-12-18T18:45:47;99663.88;;;-2.20;53.68
34983;BME280;21187;50.976;13.720;2022-12-18T18:51:03;99652.78;;;-2.17;53.60
34983;BME280;21187;50.976;13.720;2022-12-18T18:56:06;99659.84;;;-2.10;53.80
34983;BME280;21187;50.976;13.720;2022-12-18T19:01:28;99651.31;;;-2.12;53.63
34983;BME280;21187;50.976;13.720;2022-12-18T19:06:30;99632.59;;;-2.18;54.24
34983;BME280;21187;50.976;13.720;2022-12-18T19:11:34;99638.94;;;-2.19;54.07
34983;BME280;21187;50.976;13.720;2022-12-18T19:16:54;99616.78;;;-2.24;53.84
34983;BME280;21187;50.976;13.720;2022-12-18T19:21:57;99613.78;;;-2.28;54.14
34983;BME280;21187;50.976;13.720;2022-12-18T19:27:01;99602.81;;;-2.31;54.08
34983;BME280;21187;50.976;13.720;2022-12-18T19:32:03;99594.19;;;-2.27;54.54
34983;BME280;21187;50.976;13.720;2022-12-18T19:37:06;99586.34;;;-2.22;54.32
34983;BME280;21187;50.976;13.720;2022-12-18T19:42:08;99571.22;;;-2.21;54.34
34983;BME280;21187;50.976;13.720;2022-12-18T19:47:11;99554.50;;;-2.10;54.28
34983;BME280;21187;50.976;13.720;2022-12-18T19:52:16;99562.44;;;-2.10;54.63
34983;BME280;21187;50.976;13.720;2022-12-18T19:57:18;99566.25;;;-2.06;54.47
34983;BME280;21187;50.976;13.720;2022-12-18T20:02:20;99554.91;;;-2.01;54.54
34983;BME280;21187;50.976;13.720;2022-12-18T20:07:25;99549.25;;;-1.93;54.59
34983;BME280;21187;50.976;13.720;2022-12-18T20:12:27;99551.09;;;-1.81;54.03
34983;BME280;21187;50.976;13.720;2022-12-18T20:17:31;99542.44;;;-1.77;54.53
34983;BME280;21187;50.976;13.720;2022-12-18T20:22:34;99553.97;;;-1.71;54.17
34983;BME280;21187;50.976;13.720;2022-12-18T20:27:36;99556.84;;;-1.73;54.53
34983;BME280;21187;50.976;13.720;2022-12-18T20:32:38;99556.25;;;-1.63;54.26
34983;BME280;21187;50.976;13.720;2022-12-18T20:37:39;99555.31;;;-1.57;54.27
34983;BME280;21187;50.976;13.720;2022-12-18T20:42:49;99545.34;;;-1.49;53.89
34983;BME280;21187;50.976;13.720;2022-12-18T20:47:55;99528.94;;;-1.46;53.81
34983;BME280;21187;50.976;13.720;2022-12-18T20:52:57;99516.56;;;-1.41;54.27
34983;BME280;21187;50.976;13.720;2022-12-18T20:57:59;99516.56;;;-1.41;53.92
34983;BME280;21187;50.976;13.720;2022-12-18T21:03:01;99521.06;;;-1.41;54.33
34983;BME280;21187;50.976;13.720;2022-12-18T21:08:03;99525.28;;;-1.28;54.07
34983;BME280;21187;50.976;13.720;2022-12-18T21:13:05;99527.69;;;-1.27;53.98
34983;BME280;21187;50.976;13.720;2022-12-18T21:18:10;99522.22;;;-1.20;53.49
34983;BME280;21187;50.976;13.720;2022-12-18T21:23:12;99525.31;;;-1.11;53.79
34983;BME280;21187;50.976;13.720;2022-12-18T21:28:17;99518.56;;;-1.02;53.27
34983;BME280;21187;50.976;13.720;2022-12-18T21:33:19;99513.44;;;-0.92;53.19
34983;BME280;21187;50.976;13.720;2022-12-18T21:38:21;99522.44;;;-0.93;53.27
34983;BME280;21187;50.976;13.720;2022-12-18T21:43:23;99510.13;;;-0.99;53.28
34983;BME280;21187;50.976;13.720;2022-12-18T21:48:43;99506.50;;;-0.93;52.86
34983;BME280;21187;50.976;13.720;2022-12-18T21:53:44;99510.53;;;-0.90;52.47
34983;BME280;21187;50.976;13.720;2022-12-18T21:58:49;99511.66;;;-0.86;52.67
34983;BME280;21187;50.976;13.720;2022-12-18T22:03:57;99497.81;;;-0.88;52.90
34983;BME280;21187;50.976;13.720;2022-12-18T22:08:59;99504.41;;;-0.91;52.57
34983;BME280;21187;50.976;13.720;2022-12-18T22:14:01;99506.50;;;-0.93;52.72
34983;BME280;21187;50.976;13.720;2022-12-18T22:19:03;99508.59;;;-0.95;52.62
34983;BME280;21187;50.976;13.720;2022-12-18T22:24:07;99489.91;;;-1.00;52.51
34983;BME280;21187;50.976;13.720;2022-12-18T22:29:16;99493.59;;;-1.01;52.42
34983;BME280;21187;50.976;13.720;2022-12-18T22:34:37;99483.91;;;-1.07;52.75
34983;BME280;21187;50.976;13.720;2022-12-18T22:39:40;99474.31;;;-1.08;52.21
34983;BME280;21187;50.976;13.720;2022-12-18T22:44:42;99467.31;;;-1.14;52.48
34983;BME280;21187;50.976;13.720;2022-12-18T22:49:44;99466.34;;;-1.08;52.06
34983;BME280;21187;50.976;13.720;2022-12-18T22:54:45;99443.78;;;-1.06;51.97
34983;BME280;21187;50.976;13.720;2022-12-18T22:59:48;99427.28;;;-1.08;52.34
34983;BME280;21187;50.976;13.720;2022-12-18T23:04:50;99440.56;;;-1.08;52.28
34983;BME280;21187;50.976;13.720;2022-12-18T23:09:52;99429.44;;;-1.05;52.06
34983;BME280;21187;50.976;13.720;2022-12-18T23:15:02;99416.66;;;-1.08;51.64
34983;BME280;21187;50.976;13.720;2022-12-18T23:20:04;99413.66;;;-1.11;51.78
34983;BME280;21187;50.976;13.720;2022-12-18T23:25:06;99389.19;;;-1.13;51.50
34983;BME280;21187;50.976;13.720;2022-12-18T23:30:09;99384.91;;;-1.14;51.28
34983;BME280;21187;50.976;13.720;2022-12-18T23:35:11;99391.75;;;-1.19;51.59
34983;BME280;21187;50.976;13.720;2022-12-18T23:40:16;99367.75;;;-1.24;51.57
34983;BME280;21187;50.976;13.720;2022-12-18T23:45:18;99362.28;;;-1.34;51.58
34983;BME280;21187;50.976;13.720;2022-12-18T23:50:20;99340.34;;;-1.41;51.63
34983;BME280;21187;50.976;13.720;2022-12-18T23:55:31;99337.06;;;-1.48;52.01
